Tous les Résultats et les Classements des Compétitions E.S.F.

CASALINO FABIO M. - 2005 - MIN

Points Ski Open

Classement National

26714 / 144785

Mes 4 dernières courses

ESF VAL CENIS : Flèche du 22/02/2019 29ième AR
ESF VAL CENIS : Chamois du 21/02/2019 à 14h30 ABS
ESF VAL CENIS : Chamois du 21/02/2019 ABD
ESF VAL CENIS : Flèche du 20/02/2019 30ième AR

Disciplines pratiquées

Résultats SKIOPEN (Flèche - Chamois - Fusée)

Bilan SkiOpen au 01/04/2020 à 00h26

Nom - Prénom Code Sexe An Pts Scratch Clt/Categ
CASALINO FABIO       ESF1466800455 M 2005 30.95 26714/144785 3448/15571 - MIN
(ESF1466800455) Classement par Nation 25983/141298 - FRA 3331/15134 - MIN - FRA
Classement par Département 846/1732 - Dept.38 115/212 - MIN - Dept.38

Palmarès

Epreuve Disc. Etat Saison Temps Pts Médaille Clt  
ESF VAL CENIS : Flèche du 22/02/2019 F skiopen 2019 49.00 37.76 Argent 29
ESF VAL CENIS : Chamois du 21/02/2019 à 14h30 C skiopen 2019 ABS 48
ESF VAL CENIS : Chamois du 21/02/2019 C skiopen 2019 ABD 46
ESF VAL CENIS : Flèche du 20/02/2019 F skiopen 2019 47.60 35.96 Argent 30
ESF VAL CENIS : Flèche du 23/02/2018 F P1 2018 43.84 30.20 Argent 29
ESF VAL CENIS : Chamois du 22/02/2018 C skiopen 2018 ABD 89
ESF VAL CENIS : Flèche du 21/02/2018 F P2 2018 45.88 31.69 Argent 36
ESF VAL CENIS : Chamois du 02/03/2017 C 2017 ABD 47
ESF VAL CENIS : Flèche du 01/03/2017 F 2017 47.18 24.16 Vermeil 20
ESF VAL CENIS : Flèche du 24/02/2017 F 2017 41.72 28.37 Argent 21
ESF VAL CENIS : Chamois du 23/02/2017 C 2017 41.87 39.12 Argent 15
ESF VAL CENIS : Flèche du 22/02/2017 F 2017 44.84 24.59 Vermeil 18
ESF VAL CENIS : Flèche du 30/12/2016 F 2017 ABS 104
ESF VAL CENIS : Flèche du 23/12/2016 F 2017 40.92 27.87 Vermeil 26
ESF VAL CENIS : Chamois du 22/12/2016 à 12h30 C 2017 57.55 60.84 Cabri 28
ESF VAL CENIS : Chamois du 22/12/2016 C 2017 55.09 54.28 Bronze 23
ESF VAL CENIS : Flèche du 21/12/2016 F 2017 ABS 28
ESF VAL CENIS : Flèche du 21/12/2016 à 12h30 F 2017 ABS 27
ESF VAL CENIS : Flèche du 15/04/2016 F 2016 42.14 35.72 Argent 7
ESF VAL CENIS : Flèche du 15/04/2016 F 2016 42.52 36.54 Argent 9
ESF VAL CENIS : Chamois du 14/04/2016 C 2016 55.54 57.47 Bronze 11
ESF VAL CENIS : Chamois du 14/04/2016 C 2016 53.16 56.88 Bronze 8
ESF VAL CENIS : Flèche du 26/02/2016 F 2016 ABD 156
ESF VAL CENIS : Chamois du 25/02/2016 C 2016 59.78 63.02 Cabri 36
ESF VAL CENIS : Flèche du 24/02/2016 F 2016 ABD 86
ESF VAL CENIS : Flèche du 19/02/2016 F 2016 47.95 34.69 Argent 54
ESF VAL CENIS : Chamois du 18/02/2016 C 2016 55.99 58.85 Bronze 40
ESF VAL CENIS : Flèche du 17/02/2016 F 2016 44.31 33.54 Argent 41
ESF VAL CENIS : Flèche du 20/02/2015 F 2015 45.16 47.20 Bronze 31
ESF VAL CENIS : Flèche du 13/02/2015 à 14h15 F 2015 47.83 40.39 Bronze 37
ESF VAL CENIS : Chamois du 12/02/2015 à 14h15 C 2015 57.26 60.65 Cabri 34
ESF VAL CENIS : Flèche du 11/02/2015 F 2015 48.51 47.04 Bronze 39
ESF VAL CENIS : Flèche du 02/01/2015 F 2015 55.91 57.27 64
ESF VAL CENIS : Chamois du 01/01/2015 C 2015 ABS 68
ESF VAL CENIS : Flèche du 31/12/2014 F 2015 59.40 77.21 62
ESF VAL CENIS : Flèche du 14/03/2014 à 14h15 F 2014 52.23 53.53 Fléchette 80
ESF VAL CENIS : Chamois du 13/03/2014 à 14h15 C 2014 1:01.09 60.44 Cabri 39
ESF VAL CENIS : Flèche du 12/03/2014 F 2014 53.05 54.30 Fléchette 76
ESF VAL CENIS : Flèche du 07/03/2014 F 2014 55.07 60.98 104
ESF VAL CENIS : Chamois du 06/03/2014 à 14h15 C 2014 1:01.33 62.26 Cabri 60
ESF VAL CENIS : Flèche du 05/03/2014 à 14h15 F 2014 ABS 97
 Epreuve validée par le service technique du S.N.M.S.F. P1 Performance N°1
 Epreuve non validée par le service technique du S.N.M.S.F. P2 Performance N°2
  En attente de validation ou d’informations complémentaires de l’esf organisatrice.
 Epreuve antérieure au 1er Décembre 2017, ne comptant plus pour le classement SKIOPEN.
 Autre discipline validée (ne comptant pas pour le classement SKIOPEN).